sensor_id;sensor_type;location;lat;lon;timestamp;pressure;altitude;pressure_sealevel;temperature;humidity
7018;BME280;3549;42.162;24.726;2022-09-16T00:00:19;98300.59;;;19.96;82.93
7018;BME280;3549;42.162;24.726;2022-09-16T00:02:45;98537.38;;;21.27;84.58
7018;BME280;3549;42.162;24.726;2022-09-16T00:05:11;98181.50;;;19.24;83.84
7018;BME280;3549;42.162;24.726;2022-09-16T00:07:36;98532.13;;;21.33;84.56
7018;BME280;3549;42.162;24.726;2022-09-16T00:10:03;98257.09;;;19.79;84.34
7018;BME280;3549;42.162;24.726;2022-09-16T00:12:29;98502.19;;;21.28;83.51
7018;BME280;3549;42.162;24.726;2022-09-16T00:14:55;98260.00;;;19.49;86.67
7018;BME280;3549;42.162;24.726;2022-09-16T00:17:21;98349.28;;;20.07;87.72
7018;BME280;3549;42.162;24.726;2022-09-16T00:19:47;98311.72;;;19.95;86.55
7018;BME280;3549;42.162;24.726;2022-09-16T00:22:13;98445.34;;;20.76;86.73
7018;BME280;3549;42.162;24.726;2022-09-16T00:24:39;98191.84;;;19.15;86.24
7018;BME280;3549;42.162;24.726;2022-09-16T00:27:04;98219.91;;;19.34;85.68
7018;BME280;3549;42.162;24.726;2022-09-16T00:29:30;98334.09;;;19.85;87.50
7018;BME280;3549;42.162;24.726;2022-09-16T00:31:55;98380.91;;;20.13;87.92
7018;BME280;3549;42.162;24.726;2022-09-16T00:34:21;98254.13;;;19.38;88.24
7018;BME280;3549;42.162;24.726;2022-09-16T00:36:46;98428.69;;;20.35;88.39
7018;BME280;3549;42.162;24.726;2022-09-16T00:39:12;98253.25;;;19.40;89.49
7018;BME280;3549;42.162;24.726;2022-09-16T00:41:38;98510.31;;;20.93;88.84
7018;BME280;3549;42.162;24.726;2022-09-16T00:44:06;98515.50;;;20.90;88.90
7018;BME280;3549;42.162;24.726;2022-09-16T00:46:51;98452.69;;;20.31;89.72
7018;BME280;3549;42.162;24.726;2022-09-16T00:49:24;98430.41;;;20.35;89.91
7018;BME280;3549;42.162;24.726;2022-09-16T00:51:55;98527.56;;;20.83;92.84
7018;BME280;3549;42.162;24.726;2022-09-16T00:54:24;98247.25;;;19.37;91.79
7018;BME280;3549;42.162;24.726;2022-09-16T00:56:53;98330.66;;;19.85;90.63
7018;BME280;3549;42.162;24.726;2022-09-16T00:59:24;98524.03;;;20.92;91.45
7018;BME280;3549;42.162;24.726;2022-09-16T01:01:51;98308.00;;;19.39;91.64
7018;BME280;3549;42.162;24.726;2022-09-16T01:06:45;98062.13;;;17.98;90.74
7018;BME280;3549;42.162;24.726;2022-09-16T01:09:11;98528.53;;;20.75;91.45
7018;BME280;3549;42.162;24.726;2022-09-16T01:11:37;98545.59;;;20.85;90.84
7018;BME280;3549;42.162;24.726;2022-09-16T01:14:03;98560.22;;;20.78;91.23
7018;BME280;3549;42.162;24.726;2022-09-16T01:19:51;98549.88;;;20.84;90.38
7018;BME280;3549;42.162;24.726;2022-09-16T01:33:44;98362.72;;;19.45;91.92
7018;BME280;3549;42.162;24.726;2022-09-16T01:39:23;98533.25;;;20.30;94.83
7018;BME280;3549;42.162;24.726;2022-09-16T01:47:18;98534.16;;;20.23;97.26
7018;BME280;3549;42.162;24.726;2022-09-16T01:50:01;98509.56;;;19.92;97.83
7018;BME280;3549;42.162;24.726;2022-09-16T01:52:36;98527.38;;;20.12;96.71
7018;BME280;3549;42.162;24.726;2022-09-16T01:55:06;98407.28;;;19.31;96.93
7018;BME280;3549;42.162;24.726;2022-09-16T01:57:40;98530.00;;;20.06;97.79
7018;BME280;3549;42.162;24.726;2022-09-16T02:00:12;98482.25;;;19.82;97.55
7018;BME280;3549;42.162;24.726;2022-09-16T02:02:49;98535.03;;;20.16;97.04
7018;BME280;3549;42.162;24.726;2022-09-16T02:05:25;98529.06;;;20.19;97.10
7018;BME280;3549;42.162;24.726;2022-09-16T02:07:58;98533.28;;;20.29;95.84
7018;BME280;3549;42.162;24.726;2022-09-16T02:10:33;98321.13;;;18.99;94.53
7018;BME280;3549;42.162;24.726;2022-09-16T02:13:07;98515.38;;;20.14;94.80
7018;BME280;3549;42.162;24.726;2022-09-16T02:15:37;98550.72;;;19.86;96.01
7018;BME280;3549;42.162;24.726;2022-09-16T02:18:09;98463.69;;;19.43;95.73
7018;BME280;3549;42.162;24.726;2022-09-16T02:20:39;98368.25;;;18.85;94.14
7018;BME280;3549;42.162;24.726;2022-09-16T02:23:16;98499.50;;;19.63;94.26
7018;BME280;3549;42.162;24.726;2022-09-16T02:25:44;98544.69;;;19.90;93.57
7018;BME280;3549;42.162;24.726;2022-09-16T02:28:16;98400.75;;;18.83;95.00
7018;BME280;3549;42.162;24.726;2022-09-16T02:30:48;98550.84;;;19.68;95.19
7018;BME280;3549;42.162;24.726;2022-09-16T02:33:15;98560.34;;;19.55;96.35
7018;BME280;3549;42.162;24.726;2022-09-16T02:35:44;98549.22;;;19.52;95.72
7018;BME280;3549;42.162;24.726;2022-09-16T02:38:25;98553.50;;;19.53;95.00
7018;BME280;3549;42.162;24.726;2022-09-16T02:40:55;98559.47;;;19.58;95.44
7018;BME280;3549;42.162;24.726;2022-09-16T02:43:22;98569.81;;;19.44;95.92
7018;BME280;3549;42.162;24.726;2022-09-16T02:51:47;98577.50;;;19.47;95.88
7018;BME280;3549;42.162;24.726;2022-09-16T02:54:35;98569.75;;;19.52;95.90
7018;BME280;3549;42.162;24.726;2022-09-16T02:57:04;98518.59;;;19.17;95.65
7018;BME280;3549;42.162;24.726;2022-09-16T02:59:29;98580.00;;;19.53;95.54
7018;BME280;3549;42.162;24.726;2022-09-16T03:01:57;98029.50;;;16.44;95.03
7018;BME280;3549;42.162;24.726;2022-09-16T03:04:23;98353.06;;;18.36;94.63
7018;BME280;3549;42.162;24.726;2022-09-16T03:06:49;98534.72;;;19.34;96.41
7018;BME280;3549;42.162;24.726;2022-09-16T03:09:15;98508.28;;;19.21;95.90
7018;BME280;3549;42.162;24.726;2022-09-16T03:17:24;98565.50;;;19.37;96.96
7018;BME280;3549;42.162;24.726;2022-09-16T03:22:50;98556.19;;;19.25;98.80
7018;BME280;3549;42.162;24.726;2022-09-16T03:25:47;98477.69;;;18.79;99.46
7018;BME280;3549;42.162;24.726;2022-09-16T03:31:08;98558.81;;;18.98;100.00
7018;BME280;3549;42.162;24.726;2022-09-16T03:33:48;98563.06;;;19.14;100.00
7018;BME280;3549;42.162;24.726;2022-09-16T03:36:18;98546.75;;;19.26;100.00
7018;BME280;3549;42.162;24.726;2022-09-16T03:38:45;98540.78;;;19.25;99.39
7018;BME280;3549;42.162;24.726;2022-09-16T03:41:12;98539.03;;;19.26;98.31
7018;BME280;3549;42.162;24.726;2022-09-16T03:43:38;98518.56;;;19.15;96.65
7018;BME280;3549;42.162;24.726;2022-09-16T03:46:09;98429.84;;;18.72;96.52
7018;BME280;3549;42.162;24.726;2022-09-16T03:48:34;98502.22;;;19.43;95.65
7018;BME280;3549;42.162;24.726;2022-09-16T03:51:00;98260.16;;;17.97;96.30
7018;BME280;3549;42.162;24.726;2022-09-16T03:53:25;98339.38;;;18.49;95.92
7018;BME280;3549;42.162;24.726;2022-09-16T03:55:50;98051.59;;;16.80;95.56
7018;BME280;3549;42.162;24.726;2022-09-16T03:58:16;98296.03;;;17.99;96.09
7018;BME280;3549;42.162;24.726;2022-09-16T04:00:41;98315.44;;;18.41;95.37
7018;BME280;3549;42.162;24.726;2022-09-16T04:03:07;98377.66;;;18.82;94.80
7018;BME280;3549;42.162;24.726;2022-09-16T04:05:32;98347.06;;;18.44;94.72
7018;BME280;3549;42.162;24.726;2022-09-16T04:07:58;98312.13;;;18.26;93.83
7018;BME280;3549;42.162;24.726;2022-09-16T04:10:23;98066.06;;;16.79;94.86
7018;BME280;3549;42.162;24.726;2022-09-16T04:12:48;98122.25;;;16.99;94.91
7018;BME280;3549;42.162;24.726;2022-09-16T04:15:14;98583.50;;;19.41;97.18
7018;BME280;3549;42.162;24.726;2022-09-16T04:17:39;98072.94;;;16.53;96.03
7018;BME280;3549;42.162;24.726;2022-09-16T04:20:06;98428.97;;;18.74;95.59
7018;BME280;3549;42.162;24.726;2022-09-16T04:22:32;98556.06;;;19.54;94.71
7018;BME280;3549;42.162;24.726;2022-09-16T04:24:58;98301.97;;;18.07;94.15
7018;BME280;3549;42.162;24.726;2022-09-16T04:27:23;98552.59;;;19.60;94.31
7018;BME280;3549;42.162;24.726;2022-09-16T04:29:49;98439.13;;;19.00;94.50
7018;BME280;3549;42.162;24.726;2022-09-16T04:32:14;98535.38;;;19.77;92.55
7018;BME280;3549;42.162;24.726;2022-09-16T04:34:40;98485.09;;;19.47;91.50
7018;BME280;3549;42.162;24.726;2022-09-16T04:37:06;98313.75;;;18.49;90.80
7018;BME280;3549;42.162;24.726;2022-09-16T04:39:31;98363.16;;;18.81;90.31
7018;BME280;3549;42.162;24.726;2022-09-16T04:41:57;98462.81;;;19.46;88.91
7018;BME280;3549;42.162;24.726;2022-09-16T04:44:23;98560.81;;;20.13;89.88
7018;BME280;3549;42.162;24.726;2022-09-16T04:46:50;98456.78;;;19.55;90.75
7018;BME280;3549;42.162;24.726;2022-09-16T04:49:16;98357.91;;;18.96;89.48
7018;BME280;3549;42.162;24.726;2022-09-16T04:51:41;98436.25;;;19.55;88.46
7018;BME280;3549;42.162;24.726;2022-09-16T04:54:07;98422.44;;;19.68;87.21
7018;BME280;3549;42.162;24.726;2022-09-16T04:56:32;98468.38;;;20.01;88.50
7018;BME280;3549;42.162;24.726;2022-09-16T04:59:00;98459.69;;;20.14;87.19
7018;BME280;3549;42.162;24.726;2022-09-16T05:01:31;98568.75;;;20.82;86.64
7018;BME280;3549;42.162;24.726;2022-09-16T05:03:59;98453.13;;;19.83;86.15
7018;BME280;3549;42.162;24.726;2022-09-16T05:06:28;98589.00;;;20.19;89.20
7018;BME280;3549;42.162;24.726;2022-09-16T05:08:57;98318.84;;;18.59;88.53
7018;BME280;3549;42.162;24.726;2022-09-16T05:11:27;98438.91;;;19.41;89.07
7018;BME280;3549;42.162;24.726;2022-09-16T05:13:53;98596.63;;;20.34;89.97
7018;BME280;3549;42.162;24.726;2022-09-16T05:16:21;98565.00;;;20.22;90.52
7018;BME280;3549;42.162;24.726;2022-09-16T05:18:48;98566.69;;;20.29;89.53
7018;BME280;3549;42.162;24.726;2022-09-16T05:21:17;98575.03;;;20.52;89.14
7018;BME280;3549;42.162;24.726;2022-09-16T05:23:43;98574.06;;;20.64;87.58
7018;BME280;3549;42.162;24.726;2022-09-16T05:26:11;98483.59;;;20.25;87.47
7018;BME280;3549;42.162;24.726;2022-09-16T05:28:37;98268.88;;;19.10;85.96
7018;BME280;3549;42.162;24.726;2022-09-16T05:31:24;98415.91;;;20.22;83.36
7018;BME280;3549;42.162;24.726;2022-09-16T05:33:56;98558.09;;;21.16;82.24
7018;BME280;3549;42.162;24.726;2022-09-16T05:36:22;98229.38;;;19.26;80.43
7018;BME280;3549;42.162;24.726;2022-09-16T05:38:49;98491.13;;;21.18;78.49
7018;BME280;3549;42.162;24.726;2022-09-16T05:41:14;98455.31;;;21.00;75.94
7018;BME280;3549;42.162;24.726;2022-09-16T05:43:40;98234.78;;;19.84;73.69
7018;BME280;3549;42.162;24.726;2022-09-16T05:46:06;98537.47;;;21.81;74.96
7018;BME280;3549;42.162;24.726;2022-09-16T05:48:33;98439.31;;;21.42;74.47
7018;BME280;3549;42.162;24.726;2022-09-16T05:51:05;98485.00;;;21.85;72.89
7018;BME280;3549;42.162;24.726;2022-09-16T05:53:32;98488.25;;;21.99;71.42
7018;BME280;3549;42.162;24.726;2022-09-16T05:56:00;98539.81;;;22.48;70.34
7018;BME280;3549;42.162;24.726;2022-09-16T05:58:27;98365.38;;;21.50;70.38
7018;BME280;3549;42.162;24.726;2022-09-16T06:01:00;98555.94;;;22.63;69.60
7018;BME280;3549;42.162;24.726;2022-09-16T06:03:27;98294.41;;;21.33;69.52
7018;BME280;3549;42.162;24.726;2022-09-16T06:06:25;98537.09;;;23.04;67.15
7018;BME280;3549;42.162;24.726;2022-09-16T06:08:58;98535.97;;;23.16;66.83
7018;BME280;3549;42.162;24.726;2022-09-16T06:11:25;98499.19;;;23.05;65.46
7018;BME280;3549;42.162;24.726;2022-09-16T06:13:56;98499.81;;;23.16;65.20
7018;BME280;3549;42.162;24.726;2022-09-16T06:16:23;98159.16;;;21.13;64.41
7018;BME280;3549;42.162;24.726;2022-09-16T06:18:53;98368.72;;;22.49;62.53
7018;BME280;3549;42.162;24.726;2022-09-16T06:21:20;98436.03;;;23.21;62.24
7018;BME280;3549;42.162;24.726;2022-09-16T06:23:45;98389.66;;;23.15;61.32
7018;BME280;3549;42.162;24.726;2022-09-16T06:26:16;98280.28;;;22.42;61.09
7018;BME280;3549;42.162;24.726;2022-09-16T06:28:53;98443.19;;;23.46;60.78
7018;BME280;3549;42.162;24.726;2022-09-16T06:31:26;98519.41;;;24.02;59.59
7018;BME280;3549;42.162;24.726;2022-09-16T06:33:52;98400.06;;;23.50;59.45
7018;BME280;3549;42.162;24.726;2022-09-16T06:36:20;98356.00;;;23.55;57.67
7018;BME280;3549;42.162;24.726;2022-09-16T06:38:47;98400.53;;;23.99;56.48
7018;BME280;3549;42.162;24.726;2022-09-16T06:41:14;98413.44;;;24.33;55.67
7018;BME280;3549;42.162;24.726;2022-09-16T06:43:40;98520.06;;;25.09;56.13
7018;BME280;3549;42.162;24.726;2022-09-16T06:46:08;98520.97;;;25.37;54.94
7018;BME280;3549;42.162;24.726;2022-09-16T06:48:38;98516.19;;;25.53;54.74
7018;BME280;3549;42.162;24.726;2022-09-16T06:51:07;98205.09;;;23.62;53.90
7018;BME280;3549;42.162;24.726;2022-09-16T06:53:34;98332.28;;;24.67;53.01
7018;BME280;3549;42.162;24.726;2022-09-16T06:56:01;98532.09;;;25.96;53.52
7018;BME280;3549;42.162;24.726;2022-09-16T06:58:27;98540.97;;;26.17;53.15
7018;BME280;3549;42.162;24.726;2022-09-16T07:00:55;98450.66;;;25.75;53.01
7018;BME280;3549;42.162;24.726;2022-09-16T07:03:21;98376.22;;;25.53;52.03
7018;BME280;3549;42.162;24.726;2022-09-16T07:05:57;98379.41;;;25.61;52.15
7018;BME280;3549;42.162;24.726;2022-09-16T07:08:24;98299.34;;;25.26;51.04
7018;BME280;3549;42.162;24.726;2022-09-16T07:11:03;98257.88;;;25.26;50.36
7018;BME280;3549;42.162;24.726;2022-09-16T07:13:29;98386.81;;;25.98;50.69
7018;BME280;3549;42.162;24.726;2022-09-16T07:16:03;98546.25;;;26.91;51.00
7018;BME280;3549;42.162;24.726;2022-09-16T07:18:29;98544.44;;;26.93;50.99
7018;BME280;3549;42.162;24.726;2022-09-16T07:21:07;98413.94;;;26.14;50.26
7018;BME280;3549;42.162;24.726;2022-09-16T07:23:34;98543.16;;;27.05;49.56
7018;BME280;3549;42.162;24.726;2022-09-16T07:26:03;98551.78;;;27.28;49.33
7018;BME280;3549;42.162;24.726;2022-09-16T07:28:29;98392.00;;;26.47;48.71
7018;BME280;3549;42.162;24.726;2022-09-16T07:30:55;98529.81;;;27.60;48.23
7018;BME280;3549;42.162;24.726;2022-09-16T07:33:21;98528.28;;;27.98;47.36
7018;BME280;3549;42.162;24.726;2022-09-16T07:35:46;98455.16;;;27.84;46.45
7018;BME280;3549;42.162;24.726;2022-09-16T07:38:12;98459.31;;;27.88;45.66
7018;BME280;3549;42.162;24.726;2022-09-16T07:40:37;98466.91;;;28.14;45.52
7018;BME280;3549;42.162;24.726;2022-09-16T07:43:05;98410.25;;;28.21;44.98
7018;BME280;3549;42.162;24.726;2022-09-16T07:45:31;98550.84;;;29.20;44.12
7018;BME280;3549;42.162;24.726;2022-09-16T07:47:56;98526.38;;;29.04;43.84
7018;BME280;3549;42.162;24.726;2022-09-16T07:50:22;98519.72;;;29.17;44.04
7018;BME280;3549;42.162;24.726;2022-09-16T07:52:47;98452.22;;;29.11;43.08
7018;BME280;3549;42.162;24.726;2022-09-16T07:55:13;98379.03;;;28.97;42.68
7018;BME280;3549;42.162;24.726;2022-09-16T07:57:41;98252.34;;;28.57;41.85
7018;BME280;3549;42.162;24.726;2022-09-16T08:00:07;98464.44;;;30.18;41.06
7018;BME280;3549;42.162;24.726;2022-09-16T08:02:33;98294.69;;;29.51;40.43
7018;BME280;3549;42.162;24.726;2022-09-16T08:04:58;98440.41;;;30.46;40.55
7018;BME280;3549;42.162;24.726;2022-09-16T08:07:23;98505.28;;;30.87;39.51
7018;BME280;3549;42.162;24.726;2022-09-16T08:09:49;98273.56;;;29.72;39.55
7018;BME280;3549;42.162;24.726;2022-09-16T08:12:14;98384.69;;;30.45;39.31
7018;BME280;3549;42.162;24.726;2022-09-16T08:14:40;98383.22;;;30.88;39.06
7018;BME280;3549;42.162;24.726;2022-09-16T08:17:05;98472.66;;;31.59;38.73
7018;BME280;3549;42.162;24.726;2022-09-16T08:19:31;98365.06;;;31.18;38.18
7018;BME280;3549;42.162;24.726;2022-09-16T08:21:57;98389.66;;;31.29;37.06
7018;BME280;3549;42.162;24.726;2022-09-16T08:24:22;98351.81;;;30.41;38.81
7018;BME280;3549;42.162;24.726;2022-09-16T08:26:47;98306.09;;;30.00;39.46
7018;BME280;3549;42.162;24.726;2022-09-16T08:29:13;98209.13;;;29.42;39.33
7018;BME280;3549;42.162;24.726;2022-09-16T08:31:38;98256.22;;;30.21;39.25
7018;BME280;3549;42.162;24.726;2022-09-16T08:34:04;98396.50;;;31.32;38.69
7018;BME280;3549;42.162;24.726;2022-09-16T08:36:29;98341.44;;;31.04;38.24
7018;BME280;3549;42.162;24.726;2022-09-16T08:38:57;98470.31;;;32.29;37.42
7018;BME280;3549;42.162;24.726;2022-09-16T08:49:48;98464.56;;;32.23;37.20
7018;BME280;3549;42.162;24.726;2022-09-16T08:52:25;98512.16;;;33.03;36.50
7018;BME280;3549;42.162;24.726;2022-09-16T08:54:55;98508.44;;;33.07;36.11
7018;BME280;3549;42.162;24.726;2022-09-16T08:57:25;98513.22;;;33.14;36.23
7018;BME280;3549;42.162;24.726;2022-09-16T08:59:54;98393.31;;;32.74;35.77
7018;BME280;3549;42.162;24.726;2022-09-16T09:05:14;98485.69;;;33.48;35.46
7018;BME280;3549;42.162;24.726;2022-09-16T09:08:05;98480.19;;;33.39;35.10
